FR-0076 weather

Centre Hospitalier Heliport
Dole, Franche-Comté, France

Public forecast

Using degrees Celsius for public forecast. Weather courtesy of forecast.io.

METAR (pilot weather report)

Closest report is Dole-Tavaux Airport, 2.9 nm (5.3 km) SSW. Retrieved 2019/07/22 09:30 UTC (15 minutes ago):

LFGJ 220930Z AUTO 34006KT 280V050 CAVOK 28/17 Q1024 NOSIG

TAF (pilot weather forecast)

Forecast is more than 12 hours old.

Closest forecast is Dijon-Bourgogne Airport, 19.2 nm (35.5 km) NW. Retrieved 2015/06/01 00:11 UTC (4 years ago):

TAF LFSD 010600Z 0100/0124 CNL